Time;durP1;ratioP1;P1;durP2;ratioP2;P2;SDS_P1;SDS_P2;PMS_P1;PMS_P2;Temp;Humidity;BMP_temperature;BMP_pressure;BME280_temperature;BME280_humidity;BME280_pressure;Samples;Min_cycle;Max_cycle;Signal;HPM_P1;HPM_P2
2021/10/28 00:14:33;;;;;;;42.33;28.23;;;13.20;99.90;;;;;;5091115;28;20781;-72
2021/10/28 00:17:00;;;;;;;40.63;27.40;;;13.20;99.90;;;;;;5088048;28;20447;-73
2021/10/28 00:19:27;;;;;;;41.67;27.33;;;13.10;99.90;;;;;;5087653;28;20409;-73
2021/10/28 00:21:54;;;;;;;40.42;26.45;;;13.20;99.90;;;;;;5086181;28;20421;-74
2021/10/28 00:24:19;;;;;;;42.03;26.83;;;13.20;99.90;;;;;;5079689;28;20401;-74
2021/10/28 00:26:47;;;;;;;41.17;25.67;;;13.20;99.90;;;;;;5072566;28;20475;-74
2021/10/28 00:29:20;;;;;;;37.95;25.73;;;13.10;99.90;;;;;;5088064;28;20396;-72
2021/10/28 00:31:47;;;;;;;38.35;25.60;;;13.10;99.90;;;;;;5087510;28;20504;-73
2021/10/28 00:34:14;;;;;;;40.67;24.48;;;13.10;99.90;;;;;;5087013;28;20433;-73
2021/10/28 00:36:44;;;;;;;36.35;23.63;;;13.20;99.90;;;;;;5068704;28;20434;-73
2021/10/28 00:39:10;;;;;;;36.50;24.60;;;13.10;99.90;;;;;;5088365;28;20454;-73
2021/10/28 00:41:38;;;;;;;39.65;24.15;;;13.10;99.90;;;;;;5068830;28;20933;-73
2021/10/28 00:44:04;;;;;;;38.25;23.75;;;13.10;99.90;;;;;;5087515;28;20425;-72
2021/10/28 00:46:32;;;;;;;35.90;24.20;;;13.10;99.90;;;;;;5089034;28;20496;-73
2021/10/28 00:48:59;;;;;;;34.58;23.20;;;13.10;99.90;;;;;;5095981;28;20412;-72
2021/10/28 00:51:28;;;;;;;35.42;24.23;;;13.10;99.90;;;;;;5084409;28;20410;-71
2021/10/28 00:53:55;;;;;;;35.90;23.45;;;13.10;99.90;;;;;;5087744;28;20433;-73
2021/10/28 00:56:24;;;;;;;36.38;22.85;;;13.10;99.90;;;;;;5089078;28;20397;-72
2021/10/28 00:58:50;;;;;;;34.35;22.90;;;13.10;99.90;;;;;;5076220;28;20448;-74
2021/10/28 01:01:17;;;;;;;32.97;22.15;;;13.00;99.90;;;;;;5085911;28;20421;-73
2021/10/28 01:03:44;;;;;;;35.28;22.63;;;13.10;99.90;;;;;;5094668;28;20433;-71
2021/10/28 01:06:10;;;;;;;32.85;21.55;;;13.10;99.90;;;;;;5090403;28;20420;-72
2021/10/28 01:08:39;;;;;;;32.30;22.30;;;13.10;99.90;;;;;;5069292;28;20796;-73
2021/10/28 01:11:10;;;;;;;33.92;21.92;;;13.10;99.90;;;;;;5068081;28;20428;-72
2021/10/28 01:13:36;;;;;;;34.42;21.98;;;13.00;99.90;;;;;;5086924;28;20426;-72
2021/10/28 01:16:03;;;;;;;34.20;21.85;;;13.10;99.90;;;;;;5050889;28;20426;-73
2021/10/28 01:18:30;;;;;;;31.35;22.38;;;13.00;99.90;;;;;;5089509;28;20487;-72
2021/10/28 01:20:56;;;;;;;31.60;22.50;;;13.00;99.90;;;;;;5087183;28;20894;-73
2021/10/28 01:23:23;;;;;;;31.80;22.20;;;13.00;99.90;;;;;;5071439;28;20425;-72
2021/10/28 01:25:58;;;;;;;36.78;21.90;;;13.00;99.90;;;;;;5068563;28;20417;-72
2021/10/28 01:28:27;;;;;;;32.55;21.95;;;12.90;99.90;;;;;;5086721;28;20402;-72
2021/10/28 01:31:01;;;;;;;31.48;20.60;;;12.90;99.90;;;;;;5068188;28;20941;-72
2021/10/28 01:33:27;;;;;;;34.47;21.67;;;13.00;99.90;;;;;;5067690;28;20895;-71
2021/10/28 01:35:54;;;;;;;33.33;22.50;;;13.00;99.90;;;;;;5068108;28;20453;-73
2021/10/28 01:38:20;;;;;;;34.70;22.63;;;13.00;99.90;;;;;;5067863;28;20458;-73
2021/10/28 01:40:58;;;;;;;35.72;23.02;;;13.00;99.90;;;;;;5085290;28;20948;-74
2021/10/28 01:43:25;;;;;;;35.72;23.75;;;13.00;99.90;;;;;;5086711;28;20401;-71
2021/10/28 01:45:50;;;;;;;41.50;24.45;;;12.90;99.90;;;;;;5067119;28;20894;-71
2021/10/28 01:48:18;;;;;;;35.55;24.75;;;12.90;99.90;;;;;;5068332;28;20398;-72
2021/10/28 01:50:44;;;;;;;36.80;24.95;;;12.90;99.90;;;;;;5085270;28;20414;-73
2021/10/28 01:53:10;;;;;;;38.00;25.92;;;12.90;99.90;;;;;;5086965;28;20444;-74
2021/10/28 01:55:36;;;;;;;36.35;24.95;;;12.90;99.90;;;;;;5087140;28;20402;-74
2021/10/28 01:58:02;;;;;;;42.40;26.30;;;12.90;99.90;;;;;;5089875;28;20408;-73
2021/10/28 02:00:29;;;;;;;42.67;26.88;;;12.90;99.90;;;;;;5087674;28;20451;-73
2021/10/28 02:02:55;;;;;;;41.17;26.63;;;12.80;99.90;;;;;;5086813;28;20519;-74
2021/10/28 02:05:22;;;;;;;43.65;27.48;;;12.80;99.90;;;;;;5085103;28;20409;-73
2021/10/28 02:07:50;;;;;;;42.72;28.58;;;12.80;99.90;;;;;;5086109;28;20406;-74
2021/10/28 02:10:17;;;;;;;45.47;28.27;;;12.80;99.90;;;;;;5086951;28;20913;-73
2021/10/28 02:12:45;;;;;;;44.78;27.95;;;12.80;99.90;;;;;;5085500;28;20463;-75
2021/10/28 02:15:12;;;;;;;44.60;28.55;;;12.80;99.90;;;;;;5066714;28;20422;-73
2021/10/28 02:17:39;;;;;;;44.43;28.23;;;12.70;99.90;;;;;;5068449;28;20413;-74
2021/10/28 02:20:07;;;;;;;48.30;28.63;;;12.70;99.90;;;;;;5084315;28;20435;-74
2021/10/28 02:22:34;;;;;;;44.30;28.55;;;12.70;99.90;;;;;;5089911;28;20394;-74
2021/10/28 02:24:59;;;;;;;46.17;29.15;;;12.70;99.90;;;;;;5086472;28;20416;-74
2021/10/28 02:27:25;;;;;;;48.40;28.60;;;12.70;99.90;;;;;;5087850;28;20413;-73
2021/10/28 02:29:51;;;;;;;47.90;29.43;;;12.70;99.90;;;;;;5088075;28;20420;-73
2021/10/28 02:32:17;;;;;;;51.10;28.85;;;12.60;99.90;;;;;;5090512;28;20411;-73
2021/10/28 02:34:43;;;;;;;49.13;29.77;;;12.60;99.90;;;;;;5069976;28;20514;-75
2021/10/28 02:37:09;;;;;;;43.75;28.65;;;12.60;99.90;;;;;;5093074;28;20841;-73
2021/10/28 02:39:36;;;;;;;50.17;29.63;;;12.60;99.90;;;;;;5088714;28;20503;-74
2021/10/28 02:42:02;;;;;;;49.03;28.88;;;12.60;99.90;;;;;;5071921;28;20394;-74
2021/10/28 02:44:28;;;;;;;49.70;29.90;;;12.60;99.90;;;;;;5088582;28;20401;-73
2021/10/28 02:46:54;;;;;;;50.90;30.13;;;12.60;99.90;;;;;;5088733;28;20455;-73
2021/10/28 02:49:20;;;;;;;52.80;31.20;;;12.60;99.90;;;;;;5089090;28;20913;-74
2021/10/28 02:51:47;;;;;;;46.25;29.48;;;12.60;99.90;;;;;;5086511;28;20623;-73
2021/10/28 02:54:14;;;;;;;50.38;30.48;;;12.50;99.90;;;;;;5071853;28;20413;-72
2021/10/28 02:56:40;;;;;;;49.30;30.52;;;12.50;99.90;;;;;;5066199;28;22067;-72
2021/10/28 02:59:06;;;;;;;50.30;30.23;;;12.50;99.90;;;;;;5082722;28;20503;-73
2021/10/28 03:01:31;;;;;;;48.63;29.13;;;12.50;99.90;;;;;;5089874;28;20412;-73
2021/10/28 03:03:57;;;;;;;47.07;29.87;;;12.50;99.90;;;;;;5089001;28;21294;-73
2021/10/28 03:06:22;;;;;;;46.72;29.23;;;12.50;99.90;;;;;;5088383;28;20467;-73
2021/10/28 03:08:49;;;;;;;46.60;30.60;;;12.50;99.90;;;;;;5089845;28;20398;-71
2021/10/28 03:11:19;;;;;;;53.95;30.70;;;12.40;99.90;;;;;;5088849;28;20410;-72
2021/10/28 03:13:46;;;;;;;51.65;30.90;;;12.40;99.90;;;;;;5070833;28;20505;-72
2021/10/28 03:16:30;;;;;;;49.53;30.60;;;12.40;99.90;;;;;;5070580;28;20413;-72
2021/10/28 03:27:08;;;;;;;46.30;29.13;;;12.30;99.90;;;;;;5099183;28;20400;-71
2021/10/28 03:29:34;;;;;;;45.47;29.20;;;12.30;99.90;;;;;;5083196;28;20397;-72
2021/10/28 03:31:59;;;;;;;45.50;27.85;;;12.30;99.90;;;;;;5088443;28;20401;-74
2021/10/28 03:34:25;;;;;;;44.47;28.45;;;12.30;99.90;;;;;;5088046;28;20409;-72
2021/10/28 03:37:00;;;;;;;48.97;29.57;;;12.30;99.90;;;;;;5070155;28;20398;-74
2021/10/28 04:16:22;;;;;;;41.40;26.02;;;12.10;99.90;;;;;;5089006;28;21015;-74
2021/10/28 04:19:52;;;;;;;42.20;25.85;;;12.10;99.90;;;;;;5096591;27;20799;-73
2021/10/28 04:30:12;;;;;;;37.30;24.27;;;12.10;99.90;;;;;;5085842;28;20458;-74
2021/10/28 04:32:39;;;;;;;38.45;24.30;;;12.10;99.90;;;;;;5087928;28;20389;-72
2021/10/28 04:35:06;;;;;;;39.05;23.42;;;12.10;99.90;;;;;;5086786;28;20508;-73
2021/10/28 04:37:32;;;;;;;35.42;23.67;;;12.10;99.90;;;;;;5054079;28;20543;-73
2021/10/28 04:39:57;;;;;;;35.60;23.37;;;12.10;99.90;;;;;;5088327;28;20513;-73
2021/10/28 04:42:23;;;;;;;34.83;22.90;;;12.20;99.90;;;;;;5087304;28;20392;-74
2021/10/28 04:44:49;;;;;;;37.95;23.55;;;12.10;99.90;;;;;;5088538;28;20421;-74
2021/10/28 04:47:16;;;;;;;33.43;22.30;;;12.10;99.90;;;;;;5089663;28;20413;-72
2021/10/28 04:49:42;;;;;;;36.85;22.90;;;12.10;99.90;;;;;;5066440;28;20455;-72
2021/10/28 04:52:08;;;;;;;38.20;22.63;;;12.10;99.90;;;;;;5068766;28;20510;-72
2021/10/28 04:54:33;;;;;;;33.77;22.40;;;12.10;99.90;;;;;;5085161;28;20425;-73
2021/10/28 04:56:59;;;;;;;36.45;22.67;;;12.10;99.90;;;;;;5086897;28;20410;-71
2021/10/28 04:59:24;;;;;;;34.47;22.63;;;12.10;99.90;;;;;;5088206;28;20509;-72
2021/10/28 05:01:50;;;;;;;32.60;21.73;;;12.10;99.90;;;;;;5067827;28;20467;-70
2021/10/28 05:04:18;;;;;;;34.72;22.15;;;12.10;99.90;;;;;;5087522;28;20422;-72
2021/10/28 05:06:44;;;;;;;33.05;21.92;;;12.10;99.90;;;;;;5084291;28;20508;-72
2021/10/28 05:09:10;;;;;;;34.03;21.70;;;12.10;99.90;;;;;;5069226;28;20513;-72
2021/10/28 05:11:36;;;;;;;30.25;21.17;;;12.10;99.90;;;;;;5068728;28;20902;-72
2021/10/28 05:14:02;;;;;;;33.57;22.00;;;12.10;99.90;;;;;;5087286;28;20414;-74
2021/10/28 05:16:27;;;;;;;32.20;22.00;;;12.10;99.90;;;;;;5085487;28;20405;-74
2021/10/28 05:18:53;;;;;;;34.93;22.37;;;12.10;99.90;;;;;;5087160;28;20409;-74
2021/10/28 05:21:19;;;;;;;32.78;21.83;;;12.00;99.90;;;;;;5052760;28;20410;-74
2021/10/28 05:23:46;;;;;;;33.63;21.73;;;12.00;99.90;;;;;;5091304;28;20438;-72
2021/10/28 05:26:12;;;;;;;34.03;21.73;;;12.00;99.90;;;;;;5069053;28;20491;-73
2021/10/28 05:28:38;;;;;;;35.50;22.02;;;12.00;99.90;;;;;;5088969;28;20902;-73
2021/10/28 05:31:04;;;;;;;32.10;21.50;;;12.00;99.90;;;;;;5068212;28;20409;-73
2021/10/28 05:33:29;;;;;;;32.03;22.60;;;12.00;99.90;;;;;;5086997;28;20493;-72
2021/10/28 05:35:55;;;;;;;32.07;21.60;;;12.00;99.90;;;;;;5090421;28;20502;-74
2021/10/28 05:38:21;;;;;;;34.63;22.17;;;12.00;99.90;;;;;;5088615;28;20394;-73
2021/10/28 05:40:47;;;;;;;30.88;21.20;;;12.00;99.90;;;;;;5053830;28;20756;-71
2021/10/28 05:43:13;;;;;;;29.93;21.13;;;11.90;99.90;;;;;;5053260;28;20428;-73
2021/10/28 05:45:39;;;;;;;34.38;21.48;;;11.90;99.90;;;;;;5087172;28;20408;-74
2021/10/28 05:48:05;;;;;;;31.50;19.73;;;11.90;99.90;;;;;;5091077;28;20688;-75
2021/10/28 05:50:32;;;;;;;31.60;18.98;;;11.50;99.90;;;;;;5088375;28;20182;-75
2021/10/28 05:52:59;;;;;;;32.20;21.80;;;11.30;99.90;;;;;;5086690;28;20434;-72
2021/10/28 05:55:25;;;;;;;31.15;20.77;;;11.50;99.90;;;;;;5070214;28;20453;-74
2021/10/28 05:57:52;;;;;;;38.70;22.33;;;11.60;99.90;;;;;;5068893;28;20401;-72
2021/10/28 06:00:20;;;;;;;29.40;20.33;;;11.70;99.90;;;;;;5085778;28;20486;-74
2021/10/28 06:02:46;;;;;;;29.95;20.88;;;11.70;99.90;;;;;;5090921;28;20405;-72
2021/10/28 06:05:11;;;;;;;34.30;21.30;;;11.70;99.90;;;;;;5072663;28;20432;-73
2021/10/28 06:07:38;;;;;;;30.25;20.33;;;11.70;99.90;;;;;;5108564;27;20413;-74
2021/10/28 06:10:05;;;;;;;33.33;20.80;;;11.70;99.90;;;;;;5058146;28;20457;-73
2021/10/28 06:12:35;;;;;;;30.50;20.10;;;11.70;99.90;;;;;;5079095;28;20398;-74
2021/10/28 06:15:03;;;;;;;29.55;20.20;;;11.70;99.90;;;;;;5072183;28;20915;-73
2021/10/28 06:17:33;;;;;;;30.98;20.42;;;11.70;99.90;;;;;;5069030;28;20914;-72
2021/10/28 06:20:01;;;;;;;30.47;20.60;;;11.70;99.90;;;;;;5070345;28;20463;-72
2021/10/28 06:22:28;;;;;;;36.00;20.15;;;11.70;99.90;;;;;;5088182;28;20496;-72
2021/10/28 06:24:55;;;;;;;30.67;19.77;;;11.60;99.90;;;;;;5072084;28;20412;-71
2021/10/28 06:27:21;;;;;;;30.08;19.30;;;11.60;99.90;;;;;;5075197;28;20408;-70
2021/10/28 06:29:46;;;;;;;30.55;20.05;;;11.60;99.90;;;;;;5087964;28;20435;-72
2021/10/28 06:32:13;;;;;;;30.40;19.17;;;11.60;99.90;;;;;;5093752;28;20417;-71
2021/10/28 06:34:40;;;;;;;30.03;19.00;;;11.60;99.90;;;;;;5073795;28;20454;-73
2021/10/28 06:37:06;;;;;;;28.42;18.77;;;11.60;99.90;;;;;;5087151;28;20512;-71
2021/10/28 06:39:32;;;;;;;25.90;18.92;;;11.60;99.90;;;;;;5088093;28;20965;-72
2021/10/28 06:41:58;;;;;;;25.98;18.52;;;11.60;99.90;;;;;;5092797;28;20406;-73
2021/10/28 06:44:24;;;;;;;30.13;19.20;;;11.60;99.90;;;;;;5077113;28;20408;-73
2021/10/28 06:46:49;;;;;;;28.17;19.08;;;11.60;99.90;;;;;;5068833;28;20405;-73
2021/10/28 06:49:17;;;;;;;26.73;18.33;;;11.60;99.90;;;;;;5101161;28;20417;-74
2021/10/28 06:51:44;;;;;;;28.02;18.60;;;11.60;99.90;;;;;;5087672;28;20436;-73
2021/10/28 07:04:30;;;;;;;28.23;18.53;;;11.60;99.90;;;;;;5090336;28;20853;-73
2021/10/28 07:06:55;;;;;;;25.52;17.90;;;11.60;99.90;;;;;;5070089;28;20455;-73
2021/10/28 07:09:29;;;;;;;28.57;17.70;;;11.60;99.90;;;;;;5089163;28;20409;-73
2021/10/28 07:14:33;;;;;;;27.13;18.05;;;11.70;99.90;;;;;;5087641;28;20779;-72
2021/10/28 07:19:44;;;;;;;25.25;18.02;;;11.60;99.90;;;;;;5086415;28;20975;-74
2021/10/28 07:24:56;;;;;;;26.48;17.17;;;11.70;99.90;;;;;;5084416;28;20894;-73
2021/10/28 07:35:52;;;;;;;24.42;15.70;;;11.80;99.90;;;;;;5057227;28;20754;-74
2021/10/28 07:38:40;;;;;;;22.85;15.55;;;11.80;99.90;;;;;;5088648;28;20437;-73
2021/10/28 08:14:02;;;;;;;11.57;8.35;;;19.60;90.30;;;;;;5081559;28;20416;-77
2021/10/28 08:17:34;;;;;;;13.65;7.93;;;20.40;84.80;;;;;;5092578;28;20499;-76
2021/10/28 08:22:02;;;;;;;14.90;7.78;;;21.70;76.10;;;;;;5088578;28;20409;-75
2021/10/28 08:29:45;;;;;;;12.85;7.13;;;23.70;64.30;;;;;;5068378;28;20413;-75
2021/10/28 08:32:11;;;;;;;12.50;6.93;;;24.40;59.80;;;;;;5086494;28;20882;-74
2021/10/28 08:34:38;;;;;;;10.23;6.72;;;25.00;57.30;;;;;;5086287;28;20427;-76
2021/10/28 08:37:10;;;;;;;12.07;6.90;;;25.40;56.00;;;;;;5088800;28;20397;-76
2021/10/28 08:39:37;;;;;;;9.35;6.05;;;26.20;53.70;;;;;;5068014;28;20414;-77
2021/10/28 08:42:08;;;;;;;13.00;6.70;;;26.60;51.50;;;;;;5094624;28;20479;-76
2021/10/28 08:44:38;;;;;;;10.93;6.57;;;27.00;50.30;;;;;;5092285;28;20418;-76
2021/10/28 08:47:05;;;;;;;10.38;6.43;;;27.30;49.20;;;;;;5084299;28;20792;-75
2021/10/28 08:50:19;;;;;;;10.43;6.45;;;27.70;47.70;;;;;;5074158;28;20396;-75
2021/10/28 09:25:30;;;;;;;;;;;27.60;48.40;;;;;;5099391;28;19915;-78
2021/10/28 09:28:01;;;;;;;;;;;26.90;52.30;;;;;;5097574;28;19919;-75
2021/10/28 09:30:42;;;;;;;;;;;26.60;53.60;;;;;;5078780;28;19916;-74
2021/10/28 09:33:16;;;;;;;;;;;26.30;54.20;;;;;;5071665;28;19908;-73
2021/10/28 09:43:35;;;;;;;10.15;5.90;;;26.50;57.50;;;;;;5085348;28;20196;-72
2021/10/28 09:55:03;;;;;;;12.05;7.55;;;29.80;41.60;;;;;;5087177;28;20402;-73
2021/10/28 10:00:07;;;;;;;13.40;8.43;;;27.00;47.80;;;;;;5081628;28;20453;-72
2021/10/28 10:02:42;;;;;;;12.38;8.40;;;25.90;50.90;;;;;;5086950;28;20390;-73
2021/10/28 10:05:18;;;;;;;12.95;8.43;;;25.10;52.40;;;;;;5085610;28;20882;-72
2021/10/28 10:07:45;;;;;;;15.63;8.38;;;24.50;55.10;;;;;;5068200;28;20762;-72
2021/10/28 10:10:18;;;;;;;14.57;9.00;;;24.20;56.30;;;;;;5085322;28;20418;-71
2021/10/28 10:12:44;;;;;;;13.80;9.15;;;23.80;57.40;;;;;;5085173;28;20418;-71
2021/10/28 10:15:10;;;;;;;14.77;9.30;;;23.60;58.60;;;;;;5085043;28;20506;-70
2021/10/28 10:17:37;;;;;;;13.68;9.43;;;23.20;59.60;;;;;;5088566;28;22204;-72
2021/10/28 10:20:11;;;;;;;13.10;9.40;;;22.90;61.70;;;;;;5085001;28;21361;-70
2021/10/28 10:25:43;;;;;;;12.50;8.75;;;22.50;63.40;;;;;;5085758;28;20421;-70
2021/10/28 12:14:53;;;;;;;11.77;7.57;;;28.50;48.00;;;;;;5086671;28;20906;-72
2021/10/28 12:45:03;;;;;;;14.95;8.40;;;26.80;49.80;;;;;;5084624;28;20419;-74
2021/10/28 12:50:20;;;;;;;14.40;9.20;;;26.80;50.50;;;;;;5089247;28;20418;-76
2021/10/28 13:58:19;;;;;;;12.60;8.40;;;23.70;58.80;;;;;;5085146;28;20905;-73
2021/10/28 14:20:27;;;;;;;11.38;7.63;;;23.20;59.50;;;;;;5079612;28;20416;-73
2021/10/28 14:23:28;;;;;;;14.18;7.88;;;23.20;59.70;;;;;;5091030;28;20445;-73
2021/10/28 14:31:27;;;;;;;11.70;7.80;;;23.10;59.60;;;;;;5089706;28;20417;-73
2021/10/28 15:36:00;;;;;;;;;;;20.20;70.60;;;;;;5055205;28;20072;-73
2021/10/28 15:38:38;;;;;;;12.02;6.53;;;19.80;72.10;;;;;;5043922;28;20208;-74
2021/10/28 15:47:18;;;;;;;14.88;6.90;;;20.10;72.00;;;;;;5071350;28;20406;-73
2021/10/28 15:59:48;;;;;;;11.10;6.55;;;20.10;73.20;;;;;;5079563;28;20402;-76
2021/10/28 16:24:09;;;;;;;11.77;6.10;;;19.60;75.30;;;;;;5092482;28;20849;-73
2021/10/28 16:26:35;;;;;;;10.98;6.25;;;19.60;75.60;;;;;;5090305;28;20409;-74
2021/10/28 16:29:06;;;;;;;10.63;6.43;;;19.50;76.10;;;;;;5097266;28;20392;-75
2021/10/28 16:31:33;;;;;;;12.80;6.55;;;19.50;76.10;;;;;;5071323;28;20505;-73
2021/10/28 16:33:58;;;;;;;12.23;6.45;;;19.40;76.20;;;;;;5090932;28;20466;-73
2021/10/28 16:36:25;;;;;;;;;;;19.40;76.20;;;;;;5062514;28;20028;-74
2021/10/28 16:38:52;;;;;;;;;;;18.80;76.90;;;;;;5090905;28;20372;-75
2021/10/28 16:41:18;;;;;;;;;;;18.40;79.20;;;;;;5087844;28;19995;-74
2021/10/28 16:43:43;;;;;;;;;;;18.00;80.30;;;;;;5093129;28;19979;-73
2021/10/28 16:46:09;;;;;;;;;;;17.70;80.60;;;;;;5087930;28;20032;-73
2021/10/28 16:48:39;;;;;;;8.27;5.68;;;17.50;81.50;;;;;;5089425;28;20980;-75
2021/10/28 16:51:06;;;;;;;9.93;6.43;;;17.40;81.50;;;;;;5086421;28;20409;-75
2021/10/28 16:53:33;;;;;;;13.25;6.38;;;17.80;82.90;;;;;;5072470;28;20415;-75
2021/10/28 16:55:59;;;;;;;13.30;6.65;;;18.00;82.50;;;;;;5093115;28;20414;-74
2021/10/28 16:58:25;;;;;;;11.15;6.20;;;18.10;82.70;;;;;;5086974;28;21323;-73
2021/10/28 17:00:51;;;;;;;12.15;6.72;;;18.20;83.00;;;;;;5088031;28;20475;-74
2021/10/28 17:03:17;;;;;;;11.10;6.90;;;18.20;84.10;;;;;;5084786;28;20413;-74
2021/10/28 17:05:44;;;;;;;13.15;6.50;;;18.10;83.40;;;;;;5085199;28;20488;-75
2021/10/28 17:08:10;;;;;;;10.68;6.22;;;18.10;83.20;;;;;;5085994;28;20193;-74
2021/10/28 17:10:36;;;;;;;10.32;7.05;;;17.70;84.20;;;;;;5108807;27;20193;-76
2021/10/28 17:13:02;;;;;;;11.85;6.45;;;17.50;85.20;;;;;;5073938;28;20231;-74
2021/10/28 17:15:27;;;;;;;12.43;6.80;;;17.20;85.70;;;;;;5067606;28;20214;-74
2021/10/28 17:17:53;;;;;;;12.75;6.55;;;17.00;86.40;;;;;;5087049;28;20532;-75
2021/10/28 17:20:19;;;;;;;10.05;6.68;;;16.90;86.80;;;;;;5086698;28;20205;-75
2021/10/28 17:22:45;;;;;;;11.43;6.95;;;16.70;87.30;;;;;;5064733;28;20185;-74
2021/10/28 17:25:18;;;;;;;14.55;7.10;;;16.60;87.70;;;;;;5102525;28;20186;-75
2021/10/28 17:27:48;;;;;;;14.75;6.65;;;16.50;88.20;;;;;;5086906;28;20205;-75
2021/10/28 17:30:15;;;;;;;11.82;6.82;;;16.40;88.50;;;;;;5086753;28;20181;-75
2021/10/28 17:32:42;;;;;;;12.63;6.63;;;16.40;89.00;;;;;;5101457;28;20185;-75
2021/10/28 17:35:09;;;;;;;13.98;6.90;;;16.40;89.30;;;;;;5060270;28;20182;-74
2021/10/28 17:37:35;;;;;;;17.73;6.97;;;16.30;89.60;;;;;;5085849;28;20711;-75
2021/10/28 17:40:01;;;;;;;14.45;7.10;;;16.20;90.00;;;;;;5075684;28;20206;-75
2021/10/28 17:42:27;;;;;;;17.58;6.80;;;16.20;90.10;;;;;;5056136;28;20190;-74
2021/10/28 17:44:56;;;;;;;14.60;8.85;;;16.10;90.30;;;;;;5075834;28;20570;-73
2021/10/28 17:47:23;;;;;;;11.43;7.50;;;16.10;90.40;;;;;;5068854;28;20185;-74
2021/10/28 17:49:49;;;;;;;12.80;7.25;;;16.10;90.50;;;;;;5101448;28;20178;-75
2021/10/28 17:52:15;;;;;;;11.55;7.63;;;16.00;90.70;;;;;;5086415;28;20541;-75
2021/10/28 17:54:41;;;;;;;11.75;7.45;;;15.90;90.90;;;;;;5068445;28;20229;-75
2021/10/28 17:57:07;;;;;;;10.43;7.35;;;15.90;91.00;;;;;;5084812;28;20648;-73
2021/10/28 17:59:33;;;;;;;9.82;7.22;;;15.80;91.20;;;;;;5086259;28;20633;-74
2021/10/28 18:01:59;;;;;;;12.82;7.60;;;15.70;91.40;;;;;;5069157;28;20712;-73
2021/10/28 18:04:25;;;;;;;15.60;7.57;;;15.70;91.50;;;;;;5085669;28;20182;-74
2021/10/28 18:06:51;;;;;;;13.98;7.32;;;15.70;91.60;;;;;;5098294;28;20619;-73
2021/10/28 18:09:18;;;;;;;10.05;6.78;;;15.60;91.80;;;;;;5084612;28;20185;-73
2021/10/28 18:11:44;;;;;;;12.80;7.28;;;15.60;92.10;;;;;;5086929;28;20638;-73
2021/10/28 18:14:12;;;;;;;11.55;8.07;;;15.60;92.10;;;;;;5085774;28;20900;-72
2021/10/28 18:16:40;;;;;;;13.60;7.70;;;15.50;92.20;;;;;;5085299;28;20193;-73
2021/10/28 18:19:08;;;;;;;11.77;7.72;;;15.50;92.40;;;;;;5067541;28;20185;-73
2021/10/28 18:21:37;;;;;;;12.05;7.47;;;15.50;92.50;;;;;;5083955;28;20209;-73
2021/10/28 18:24:03;;;;;;;14.40;8.18;;;15.50;92.60;;;;;;5066412;28;20194;-73
2021/10/28 18:26:28;;;;;;;12.10;8.52;;;15.40;92.70;;;;;;5066946;28;20193;-74
2021/10/28 18:28:56;;;;;;;13.23;8.23;;;15.40;92.80;;;;;;5085642;28;20670;-73
2021/10/28 18:31:22;;;;;;;11.05;7.28;;;15.30;92.90;;;;;;5084354;28;20193;-73
2021/10/28 18:33:49;;;;;;;12.75;7.80;;;15.30;93.00;;;;;;5089385;28;20235;-73
2021/10/28 18:36:16;;;;;;;12.07;8.25;;;15.20;93.20;;;;;;5084783;28;20214;-73
2021/10/28 18:38:45;;;;;;;12.48;7.70;;;15.30;93.30;;;;;;5066859;28;20186;-73
2021/10/28 18:41:15;;;;;;;12.57;8.68;;;15.20;93.40;;;;;;5064771;28;20918;-73
2021/10/28 18:43:42;;;;;;;13.77;8.90;;;15.70;93.70;;;;;;5080955;28;20417;-73
2021/10/28 18:46:09;;;;;;;11.63;7.97;;;16.00;93.40;;;;;;5070000;28;20424;-74
2021/10/28 18:48:35;;;;;;;12.23;8.52;;;16.10;93.10;;;;;;5083055;28;20416;-73
2021/10/28 18:51:02;;;;;;;12.30;8.25;;;16.20;93.00;;;;;;5064091;28;20913;-73
2021/10/28 18:53:28;;;;;;;13.35;9.80;;;16.20;92.90;;;;;;5094493;28;20767;-73
2021/10/28 18:55:54;;;;;;;15.63;11.57;;;16.20;93.20;;;;;;5062936;28;20514;-73
2021/10/28 18:58:20;;;;;;;14.90;8.88;;;16.30;93.30;;;;;;5056840;28;20431;-73
2021/10/28 19:00:49;;;;;;;12.57;8.53;;;16.30;92.90;;;;;;5088104;28;20492;-73
2021/10/28 19:03:16;;;;;;;13.68;8.80;;;16.20;93.10;;;;;;5097766;28;20409;-74
2021/10/28 19:05:41;;;;;;;14.75;11.35;;;16.20;93.00;;;;;;5080878;28;20433;-74
2021/10/28 19:08:07;;;;;;;12.37;9.40;;;16.20;93.10;;;;;;5083577;28;20405;-73
2021/10/28 19:10:33;;;;;;;14.23;8.17;;;16.20;93.10;;;;;;5086023;28;20538;-72
2021/10/28 19:12:59;;;;;;;14.20;8.27;;;16.20;93.00;;;;;;5086825;28;20471;-73
2021/10/28 19:15:24;;;;;;;13.00;8.03;;;16.20;93.20;;;;;;5084003;28;20409;-72
2021/10/28 19:17:52;;;;;;;11.60;8.52;;;16.20;93.30;;;;;;5092600;28;20500;-72
2021/10/28 19:20:19;;;;;;;14.00;8.40;;;16.20;93.50;;;;;;5068783;28;20500;-74
2021/10/28 19:22:45;;;;;;;11.40;8.20;;;16.20;93.50;;;;;;5069425;28;20405;-72
2021/10/28 19:25:11;;;;;;;12.87;8.73;;;16.20;93.50;;;;;;5069492;28;20414;-74
2021/10/28 19:27:38;;;;;;;12.45;8.77;;;16.20;93.50;;;;;;5069206;28;20441;-73
2021/10/28 19:30:22;;;;;;;14.52;8.63;;;16.10;93.50;;;;;;5087573;28;20414;-73
2021/10/28 19:32:50;;;;;;;11.80;8.38;;;16.10;93.50;;;;;;5090477;28;20413;-73
2021/10/28 19:35:17;;;;;;;13.80;8.90;;;16.00;93.90;;;;;;5088914;28;20417;-73
2021/10/28 19:37:49;;;;;;;13.25;8.98;;;16.00;94.00;;;;;;5072222;28;20886;-75
2021/10/28 19:40:32;;;;;;;12.45;8.70;;;15.90;94.00;;;;;;5086842;28;20452;-75
2021/10/28 19:46:09;;;;;;;19.70;13.63;;;15.80;94.40;;;;;;5053311;28;20910;-74
2021/10/28 19:48:35;;;;;;;13.98;9.27;;;15.80;94.40;;;;;;5071266;28;20909;-74
2021/10/28 19:51:01;;;;;;;13.90;9.20;;;15.80;94.40;;;;;;5088000;28;20421;-75
2021/10/28 19:53:28;;;;;;;12.38;8.52;;;15.80;94.60;;;;;;5090041;28;20407;-74
2021/10/28 19:55:55;;;;;;;12.70;8.77;;;15.70;94.50;;;;;;5089464;28;20422;-74
2021/10/28 19:58:24;;;;;;;13.00;8.73;;;15.70;94.60;;;;;;5070756;28;20414;-74
2021/10/28 20:01:00;;;;;;;16.08;8.80;;;15.70;94.70;;;;;;5069883;28;20398;-75
2021/10/28 20:03:46;;;;;;;16.90;9.32;;;15.70;94.70;;;;;;5070512;28;20427;-75
2021/10/28 20:06:44;;;;;;;14.63;9.07;;;15.60;94.80;;;;;;5069955;28;20413;-75
2021/10/28 20:20:35;;;;;;;12.23;9.32;;;15.50;95.30;;;;;;5086822;28;20886;-74
2021/10/28 20:22:52;;;;;;;12.10;8.85;;;15.40;95.40;;;;;;5085711;28;20445;-74
2021/10/28 20:25:24;;;;;;;13.40;9.10;;;15.40;95.40;;;;;;5086070;28;20550;-75
2021/10/28 20:27:50;;;;;;;12.05;8.90;;;15.40;95.40;;;;;;5097218;28;20429;-74
2021/10/28 20:30:23;;;;;;;15.60;9.13;;;15.40;95.50;;;;;;5069976;28;20425;-74
2021/10/28 20:32:49;;;;;;;14.25;9.25;;;15.40;95.50;;;;;;5102046;28;20880;-74
2021/10/28 20:37:51;;;;;;;12.97;8.90;;;15.30;95.70;;;;;;5088613;28;20452;-75
2021/10/28 20:40:17;;;;;;;15.82;9.70;;;15.30;95.80;;;;;;5086970;28;20418;-75
2021/10/28 20:42:47;;;;;;;17.67;9.70;;;15.30;95.80;;;;;;5089202;28;20871;-74
2021/10/28 20:45:21;;;;;;;14.60;9.55;;;15.20;95.80;;;;;;5085886;28;20417;-74
2021/10/28 20:47:47;;;;;;;12.70;9.10;;;15.20;95.80;;;;;;5086729;28;20417;-74
2021/10/28 20:50:15;;;;;;;13.50;9.40;;;15.20;95.90;;;;;;5071783;28;20930;-74
2021/10/28 20:52:43;;;;;;;16.23;9.45;;;15.20;95.80;;;;;;5097464;28;20504;-74
2021/10/28 20:55:10;;;;;;;14.10;10.03;;;15.20;95.80;;;;;;5086991;28;20445;-75
2021/10/28 20:57:36;;;;;;;14.27;9.70;;;15.20;95.80;;;;;;5054052;28;20410;-74
2021/10/28 21:00:08;;;;;;;15.30;10.02;;;15.10;95.80;;;;;;5086512;28;20409;-75
2021/10/28 21:02:38;;;;;;;16.35;9.63;;;15.10;95.90;;;;;;5091037;28;20405;-74
2021/10/28 21:05:12;;;;;;;15.43;10.40;;;15.00;95.90;;;;;;5086277;28;20414;-74
2021/10/28 21:07:43;;;;;;;13.60;9.85;;;15.00;96.00;;;;;;5087211;28;20878;-74
2021/10/28 21:10:11;;;;;;;12.90;9.65;;;14.90;96.10;;;;;;5069121;28;20940;-73
2021/10/28 21:12:37;;;;;;;13.90;9.57;;;14.90;96.20;;;;;;5069407;28;20409;-74
2021/10/28 21:15:05;;;;;;;13.55;9.60;;;14.90;96.30;;;;;;5086483;28;20426;-74
2021/10/28 21:17:31;;;;;;;14.18;10.13;;;14.80;96.30;;;;;;5087984;28;20413;-74
2021/10/28 21:19:57;;;;;;;14.23;9.50;;;14.80;96.50;;;;;;5086653;28;20413;-74
2021/10/28 21:22:23;;;;;;;14.70;10.23;;;14.70;96.60;;;;;;5088196;28;20402;-74
2021/10/28 21:24:50;;;;;;;14.83;10.33;;;14.70;96.70;;;;;;5086037;28;20786;-74
2021/10/28 21:27:20;;;;;;;14.18;9.82;;;14.60;96.80;;;;;;5088232;28;20405;-73
2021/10/28 21:29:46;;;;;;;14.95;9.60;;;14.70;96.90;;;;;;5084503;28;20419;-73
2021/10/28 21:32:12;;;;;;;14.17;9.40;;;14.60;96.80;;;;;;5088321;28;20466;-73
2021/10/28 21:34:40;;;;;;;14.02;9.55;;;14.60;97.00;;;;;;5086023;28;20520;-73